KROW/ROW METAR and TAF weather

Enter ICAO airport designator
Station Type Date Time Source
KROW METAR 2019/08/25 19:51 UTC NOAA

KROW 251951Z 30014KT 10SM CLR 42/01 A2988 RMK AO2 SLP036 T04170006


Station Type Date Time Source
KROW Decoded METAR 2019/08/25 19:51 UTC NOAA

Station name not available
Aug 25, 2019 - 03:51 PM EDT / 2019.08.25 1951 UTC
Wind: from the WNW (300 degrees) at 16 MPH (14 KT):0
Visibility: 10 mile(s):0
Sky conditions: clear
Temperature: 107.1 F (41.7 C)
Dew Point: 33.1 F (0.6 C)
Relative Humidity: 7%
Pressure (altimeter): 29.88 in. Hg (1011 hPa)
ob: KROW 251951Z 30014KT 10SM CLR 42/01 A2988 RMK AO2 SLP036 T04170006
cycle: 20

Station Type Date Time Source
KROW TAF 2019/08/25 19:06 UTC NOAA

TAF
AMD KROW 251903Z 2519/2618 31011KT P6SM FEW250
TEMPO 2519/2523 31012G22KT
FM260200 VRB05KT P6SM FEW250

Example: see airport list